Time;durP1;ratioP1;P1;durP2;ratioP2;P2;SDS_P1;SDS_P2;PMS_P1;PMS_P2;Temp;Humidity;BMP_temperature;BMP_pressure;BME280_temperature;BME280_humidity;BME280_pressure;Samples;Min_cycle;Max_cycle;Signal;HPM_P1;HPM_P2
2021/03/17 10:05:31;;;;;;;54.53;52.30;;;;;;;;;;5090720;27;20952;-75
2021/03/17 10:07:58;;;;;;;63.17;60.50;;;;;;;;;;5089479;28;20172;-75
2021/03/17 10:10:24;;;;;;;72.65;69.53;;;;;;;;;;5090666;28;20225;-75
2021/03/17 10:12:50;;;;;;;80.45;76.97;;;;;;;;;;5090637;28;20194;-75
2021/03/17 10:15:19;;;;;;;88.70;84.13;;;;;;;;;;5093976;28;20176;-75
2021/03/17 10:17:45;;;;;;;87.63;83.80;;;;;;;;;;5091948;28;20662;-75
2021/03/17 10:20:12;;;;;;;96.00;91.80;;;;;;;;;;5090666;28;20525;-75
2021/03/17 10:22:38;;;;;;;97.15;92.78;;;;;;;;;;5090455;28;20179;-75
2021/03/17 10:25:12;;;;;;;93.22;89.13;;;;;;;;;;5090298;28;20282;-75
2021/03/17 10:27:40;;;;;;;93.18;88.97;;;;;;;;;;5090302;28;20168;-75
2021/03/17 10:30:09;;;;;;;89.80;85.90;;;;;;;;;;5090285;28;20167;-75
2021/03/17 10:32:39;;;;;;;83.82;80.18;;;;;;;;;;5090240;28;20525;-75
2021/03/17 10:35:07;;;;;;;85.70;81.95;;;;;;;;;;5090220;28;20179;-75
2021/03/17 10:37:33;;;;;;;120.60;115.18;;;;;;;;;;5088839;28;20629;-75
2021/03/17 10:40:06;;;;;;;78.32;74.93;;;;;;;;;;5088764;28;20270;-75
2021/03/17 10:42:32;;;;;;;75.78;72.53;;;;;;;;;;5090155;28;20179;-75
2021/03/17 10:45:07;;;;;;;78.80;75.18;;;;;;;;;;5088669;28;20629;-75
2021/03/17 10:47:33;;;;;;;76.18;72.75;;;;;;;;;;5090033;28;20243;-75
2021/03/17 10:50:00;;;;;;;72.47;69.30;;;;;;;;;;5089870;28;20165;-75
2021/03/17 10:52:58;;;;;;;78.43;75.05;;;;;;;;;;5089866;28;20166;-75
2021/03/17 10:55:25;;;;;;;69.10;66.13;;;;;;;;;;5077647;28;20194;-75
2021/03/17 10:57:52;;;;;;;65.72;62.92;;;;;;;;;;5089791;28;20168;-75
2021/03/17 11:00:23;;;;;;;56.35;53.75;;;;;;;;;;5089708;28;20164;-75
2021/03/17 11:02:49;;;;;;;51.08;49.00;;;;;;;;;;5089714;28;20252;-75
2021/03/17 11:05:16;;;;;;;54.70;52.33;;;;;;;;;;5089323;28;20561;-75
2021/03/17 11:07:48;;;;;;;55.47;53.17;;;;;;;;;;5088338;28;20168;-75
2021/03/17 11:10:30;;;;;;;58.13;55.70;;;;;;;;;;5088307;28;20201;-75
2021/03/17 11:12:56;;;;;;;55.90;53.40;;;;;;;;;;5089501;28;20218;-75
2021/03/17 11:15:32;;;;;;;57.67;55.08;;;;;;;;;;5084542;28;20176;-75
2021/03/17 11:17:58;;;;;;;53.53;51.33;;;;;;;;;;5075916;28;20226;-75
2021/03/17 11:20:25;;;;;;;49.53;47.53;;;;;;;;;;5074626;28;20522;-75
2021/03/17 11:22:52;;;;;;;52.85;50.67;;;;;;;;;;5075859;28;20165;-75
2021/03/17 11:25:24;;;;;;;50.05;47.97;;;;;;;;;;5075716;28;20227;-75
2021/03/17 11:27:51;;;;;;;55.60;53.25;;;;;;;;;;5075699;28;20614;-75
2021/03/17 11:30:17;;;;;;;50.72;48.67;;;;;;;;;;5075740;28;20176;-75
2021/03/17 11:32:43;;;;;;;60.25;57.65;;;;;;;;;;5075665;28;20169;-75
2021/03/17 11:35:10;;;;;;;45.15;42.92;;;;;;;;;;5075647;28;20176;-75
2021/03/17 11:37:35;;;;;;;43.65;41.95;;;;;;;;;;5075557;28;20168;-75
2021/03/17 11:40:02;;;;;;;36.35;35.05;;;;;;;;;;5074189;28;20180;-75
2021/03/17 11:42:29;;;;;;;39.60;38.10;;;;;;;;;;5075497;28;20221;-75
2021/03/17 11:44:55;;;;;;;42.45;40.75;;;;;;;;;;5075361;28;20196;-75
2021/03/17 11:47:21;;;;;;;40.45;38.85;;;;;;;;;;5075465;28;20173;-75
2021/03/17 11:49:47;;;;;;;37.53;36.13;;;;;;;;;;5075364;28;20186;-75
2021/03/17 11:52:13;;;;;;;34.88;33.60;;;;;;;;;;5075290;28;20644;-75
2021/03/17 11:54:40;;;;;;;35.47;34.17;;;;;;;;;;5075219;28;20181;-75
2021/03/17 11:57:06;;;;;;;37.63;35.53;;;;;;;;;;5075176;28;20290;-75
2021/03/17 11:59:32;;;;;;;34.65;33.40;;;;;;;;;;5073950;28;20184;-75
2021/03/17 12:01:58;;;;;;;36.00;34.60;;;;;;;;;;5075220;28;20596;-75
2021/03/17 12:04:24;;;;;;;34.72;33.50;;;;;;;;;;5074662;28;20228;-75
2021/03/17 12:06:50;;;;;;;36.25;34.75;;;;;;;;;;5075043;28;20172;-75
2021/03/17 12:09:16;;;;;;;32.20;31.10;;;;;;;;;;5074901;28;20169;-75
2021/03/17 12:11:43;;;;;;;34.33;33.13;;;;;;;;;;5074960;28;20160;-75
2021/03/17 12:14:09;;;;;;;34.55;33.15;;;;;;;;;;5074885;28;20202;-75
2021/03/17 12:16:35;;;;;;;32.45;31.35;;;;;;;;;;5073595;28;20528;-75
2021/03/17 12:19:01;;;;;;;31.65;30.50;;;;;;;;;;5074764;28;20175;-75
2021/03/17 12:21:28;;;;;;;31.25;30.15;;;;;;;;;;5074711;28;20180;-75
2021/03/17 12:23:54;;;;;;;33.58;32.30;;;;;;;;;;5073279;28;20272;-75
2021/03/17 12:26:20;;;;;;;33.03;31.85;;;;;;;;;;5074447;28;20183;-75
2021/03/17 12:28:47;;;;;;;32.60;31.20;;;;;;;;;;5073832;28;20161;-75
2021/03/17 12:31:13;;;;;;;33.58;32.38;;;;;;;;;;5074511;28;20645;-75
2021/03/17 12:33:39;;;;;;;32.47;31.33;;;;;;;;;;5073171;28;20172;-75
2021/03/17 12:36:06;;;;;;;33.03;31.88;;;;;;;;;;5074368;28;20172;-75
2021/03/17 12:38:32;;;;;;;32.83;31.63;;;;;;;;;;5073044;28;20176;-75
2021/03/17 12:40:58;;;;;;;33.65;32.25;;;;;;;;;;5074288;28;20180;-75
2021/03/17 12:43:24;;;;;;;33.78;32.28;;;;;;;;;;5074451;28;20634;-75
2021/03/17 12:45:51;;;;;;;33.28;31.98;;;;;;;;;;5074261;28;20164;-75
2021/03/17 12:48:17;;;;;;;32.20;31.00;;;;;;;;;;5074162;28;20240;-75
2021/03/17 12:50:43;;;;;;;31.20;30.13;;;;;;;;;;5074111;28;20165;-75
2021/03/17 12:53:09;;;;;;;32.03;30.83;;;;;;;;;;5072785;28;20580;-75
2021/03/17 12:55:35;;;;;;;32.80;31.60;;;;;;;;;;5072746;28;20165;-75
2021/03/17 12:58:01;;;;;;;32.22;31.13;;;;;;;;;;5072689;28;20259;-75
2021/03/17 13:00:28;;;;;;;33.58;32.38;;;;;;;;;;5073924;28;20243;-75
2021/03/17 13:02:54;;;;;;;33.38;32.17;;;;;;;;;;5072583;28;20176;-74
2021/03/17 13:05:21;;;;;;;34.90;33.60;;;;;;;;;;5072491;28;20223;-75
2021/03/17 13:07:47;;;;;;;34.55;33.33;;;;;;;;;;5073787;28;20173;-75
2021/03/17 13:10:15;;;;;;;37.20;35.80;;;;;;;;;;5072468;28;20742;-75
2021/03/17 13:12:41;;;;;;;34.72;33.42;;;;;;;;;;5073742;28;20175;-75
2021/03/17 13:15:08;;;;;;;36.08;34.72;;;;;;;;;;5073685;28;20250;-75
2021/03/17 13:17:34;;;;;;;31.90;30.80;;;;;;;;;;5073692;28;20180;-75
2021/03/17 13:20:00;;;;;;;34.22;33.03;;;;;;;;;;5074086;28;20173;-75
2021/03/17 13:22:27;;;;;;;33.90;32.70;;;;;;;;;;5072519;28;20637;-75
2021/03/17 13:24:53;;;;;;;35.00;33.70;;;;;;;;;;5073399;28;20641;-75
2021/03/17 13:27:19;;;;;;;33.78;32.58;;;;;;;;;;5073551;28;20169;-75
2021/03/17 13:29:45;;;;;;;35.50;34.20;;;;;;;;;;5073469;28;20172;-75
2021/03/17 13:32:11;;;;;;;34.20;33.00;;;;;;;;;;5073396;28;20251;-75
2021/03/17 13:34:37;;;;;;;31.92;30.83;;;;;;;;;;5073334;28;20218;-75
2021/03/17 13:37:03;;;;;;;36.63;35.17;;;;;;;;;;5073366;28;20204;-75
2021/03/17 13:39:28;;;;;;;34.28;33.08;;;;;;;;;;5073100;28;20176;-75
2021/03/17 13:41:57;;;;;;;32.55;31.42;;;;;;;;;;5073312;28;20180;-75
2021/03/17 13:44:23;;;;;;;32.70;31.58;;;;;;;;;;5073226;28;20196;-74
2021/03/17 13:46:49;;;;;;;31.95;30.85;;;;;;;;;;5073367;28;20173;-75
2021/03/17 13:49:15;;;;;;;30.90;29.85;;;;;;;;;;5073207;28;20168;-75
2021/03/17 13:51:41;;;;;;;32.40;31.27;;;;;;;;;;5071979;28;20642;-75
2021/03/17 13:54:07;;;;;;;33.63;32.42;;;;;;;;;;5073197;28;20578;-75
2021/03/17 13:56:33;;;;;;;32.40;31.00;;;;;;;;;;5071909;28;20270;-75
2021/03/17 13:58:59;;;;;;;30.80;29.55;;;;;;;;;;5073155;28;20532;-75
2021/03/17 14:01:25;;;;;;;31.55;30.45;;;;;;;;;;5071874;28;20533;-75
2021/03/17 14:03:53;;;;;;;29.80;28.80;;;;;;;;;;5072733;28;20803;-75
2021/03/17 14:06:19;;;;;;;31.52;30.40;;;;;;;;;;5071853;28;20169;-75
2021/03/17 14:08:45;;;;;;;30.20;29.15;;;;;;;;;;5073054;28;20618;-75
2021/03/17 14:11:11;;;;;;;30.17;29.17;;;;;;;;;;5073048;28;20172;-81
2021/03/17 14:13:36;;;;;;;30.40;29.38;;;;;;;;;;5073024;28;20208;-82
2021/03/17 14:16:03;;;;;;;30.65;29.63;;;;;;;;;;5071693;28;20183;-83
2021/03/17 14:18:29;;;;;;;30.35;29.30;;;;;;;;;;5072936;28;20172;-81
2021/03/17 14:20:55;;;;;;;28.92;27.98;;;;;;;;;;5072919;28;20164;-80
2021/03/17 14:23:21;;;;;;;29.27;28.27;;;;;;;;;;5072827;28;20247;-79
2021/03/17 14:25:47;;;;;;;29.25;28.25;;;;;;;;;;5072931;28;20169;-77
2021/03/17 14:28:13;;;;;;;29.60;28.40;;;;;;;;;;5072860;28;20190;-78
2021/03/17 14:30:39;;;;;;;28.95;27.95;;;;;;;;;;5072825;28;20173;-79
2021/03/17 14:33:05;;;;;;;29.77;28.67;;;;;;;;;;5072799;28;20172;-74
2021/03/17 14:35:31;;;;;;;32.03;30.92;;;;;;;;;;5072784;28;20172;-74
2021/03/17 14:37:58;;;;;;;30.10;28.77;;;;;;;;;;5072918;28;20583;-75
2021/03/17 14:40:26;;;;;;;30.60;29.55;;;;;;;;;;5072796;28;20255;-78
2021/03/17 14:42:52;;;;;;;28.45;27.55;;;;;;;;;;5071451;28;20632;-76
2021/03/17 14:45:19;;;;;;;30.52;29.35;;;;;;;;;;5071291;28;20290;-74
2021/03/17 14:47:44;;;;;;;29.20;28.05;;;;;;;;;;5072696;28;20171;-74
2021/03/17 14:50:11;;;;;;;29.75;28.65;;;;;;;;;;5072912;28;20527;-74
2021/03/17 14:52:37;;;;;;;27.30;26.40;;;;;;;;;;5076408;28;20221;-75
2021/03/17 14:55:06;;;;;;;30.10;29.02;;;;;;;;;;5074931;28;20383;-74
2021/03/17 14:57:32;;;;;;;28.17;27.27;;;;;;;;;;5076331;28;20173;-74
2021/03/17 14:59:59;;;;;;;27.88;26.98;;;;;;;;;;5075059;28;20237;-73
2021/03/17 15:02:25;;;;;;;28.98;27.98;;;;;;;;;;5076266;28;20173;-74
2021/03/17 15:04:53;;;;;;;29.05;28.05;;;;;;;;;;5075886;28;20216;-73
2021/03/17 15:07:21;;;;;;;28.35;27.42;;;;;;;;;;5076273;28;20169;-73
2021/03/17 15:09:47;;;;;;;29.88;28.67;;;;;;;;;;5076035;28;20206;-73
2021/03/17 15:12:14;;;;;;;29.58;28.58;;;;;;;;;;5076115;28;20168;-73
2021/03/17 15:14:41;;;;;;;28.30;27.38;;;;;;;;;;5075903;28;20164;-73
2021/03/17 15:17:07;;;;;;;28.85;27.85;;;;;;;;;;5075987;28;20176;-76
2021/03/17 15:19:33;;;;;;;29.30;28.30;;;;;;;;;;5075975;28;20168;-77
2021/03/17 15:22:00;;;;;;;30.23;29.23;;;;;;;;;;5075918;28;20176;-77
2021/03/17 15:24:26;;;;;;;30.35;29.25;;;;;;;;;;5075857;28;20195;-78
2021/03/17 15:26:53;;;;;;;30.48;29.45;;;;;;;;;;5075724;28;20161;-78
2021/03/17 15:29:19;;;;;;;30.08;29.08;;;;;;;;;;5075784;28;20183;-77
2021/03/17 15:31:45;;;;;;;30.92;29.88;;;;;;;;;;5075708;28;20168;-80
2021/03/17 15:34:11;;;;;;;31.20;30.08;;;;;;;;;;5075697;28;20172;-78
2021/03/17 15:36:37;;;;;;;37.33;35.92;;;;;;;;;;5075604;28;20164;-84
2021/03/17 15:39:04;;;;;;;33.67;31.92;;;;;;;;;;5075574;28;20530;-84
2021/03/17 15:41:30;;;;;;;32.47;31.35;;;;;;;;;;5075563;28;20199;-78
2021/03/17 15:43:56;;;;;;;33.63;32.33;;;;;;;;;;5075331;28;20278;-83
2021/03/17 15:46:22;;;;;;;41.28;39.67;;;;;;;;;;5074220;28;20506;-84
2021/03/17 15:48:49;;;;;;;40.40;38.80;;;;;;;;;;5075443;28;20172;-88
2021/03/17 15:51:16;;;;;;;30.42;29.33;;;;;;;;;;5074257;28;20200;-82
2021/03/17 15:53:42;;;;;;;27.83;26.92;;;;;;;;;;5075408;28;20660;-76
2021/03/17 15:56:07;;;;;;;29.45;28.45;;;;;;;;;;5075199;28;20251;-75
2021/03/17 15:58:34;;;;;;;30.70;29.60;;;;;;;;;;5075264;28;20634;-76
2021/03/17 16:01:00;;;;;;;32.50;31.35;;;;;;;;;;5075004;28;20160;-76
2021/03/17 16:03:26;;;;;;;34.15;32.65;;;;;;;;;;5074770;28;20184;-76
2021/03/17 16:05:52;;;;;;;36.65;35.33;;;;;;;;;;5073796;28;20255;-76
2021/03/17 16:08:19;;;;;;;33.78;32.58;;;;;;;;;;5073762;28;20603;-75
2021/03/17 16:10:45;;;;;;;41.53;39.92;;;;;;;;;;5074908;28;20215;-74
2021/03/17 16:13:11;;;;;;;32.75;31.65;;;;;;;;;;5074909;28;20177;-78
2021/03/17 16:15:36;;;;;;;34.10;32.80;;;;;;;;;;5074919;28;20168;-78
2021/03/17 16:18:03;;;;;;;29.20;28.23;;;;;;;;;;5074840;28;20168;-77
2021/03/17 16:20:30;;;;;;;31.88;30.58;;;;;;;;;;5074843;28;20176;-77
2021/03/17 16:22:56;;;;;;;29.65;28.65;;;;;;;;;;5075518;28;20619;-68
2021/03/17 16:25:22;;;;;;;28.58;27.48;;;;;;;;;;5076059;28;20529;-78
2021/03/17 16:27:48;;;;;;;30.45;29.45;;;;;;;;;;5074610;28;20172;-78
2021/03/17 16:30:15;;;;;;;31.20;30.10;;;;;;;;;;5074484;28;20179;-77
2021/03/17 16:32:42;;;;;;;29.10;28.13;;;;;;;;;;5074447;28;20172;-78
2021/03/17 16:35:08;;;;;;;30.92;28.98;;;;;;;;;;5074671;28;20172;-78
2021/03/17 16:37:34;;;;;;;29.48;28.48;;;;;;;;;;5074563;28;20242;-78
2021/03/17 16:40:00;;;;;;;32.70;31.60;;;;;;;;;;5074555;28;20168;-77
